sensor_id;sensor_type;location;lat;lon;timestamp;P1;durP1;ratioP1;P2;durP2;ratioP2
4214;SDS011;2121;48.062;7.850;2023-05-16T00:02:15;5.20;;;4.80;;
4214;SDS011;2121;48.062;7.850;2023-05-16T00:04:42;5.73;;;5.03;;
4214;SDS011;2121;48.062;7.850;2023-05-16T00:07:08;6.23;;;5.10;;
4214;SDS011;2121;48.062;7.850;2023-05-16T00:09:34;5.03;;;4.60;;
4214;SDS011;2121;48.062;7.850;2023-05-16T00:11:59;6.53;;;5.10;;
4214;SDS011;2121;48.062;7.850;2023-05-16T00:14:25;5.17;;;4.77;;
4214;SDS011;2121;48.062;7.850;2023-05-16T00:16:52;6.37;;;5.77;;
4214;SDS011;2121;48.062;7.850;2023-05-16T00:19:18;5.87;;;5.37;;
4214;SDS011;2121;48.062;7.850;2023-05-16T00:21:44;5.60;;;5.20;;
4214;SDS011;2121;48.062;7.850;2023-05-16T00:24:10;5.60;;;5.10;;
4214;SDS011;2121;48.062;7.850;2023-05-16T00:26:36;10.57;;;8.07;;
4214;SDS011;2121;48.062;7.850;2023-05-16T00:29:02;6.40;;;5.37;;
4214;SDS011;2121;48.062;7.850;2023-05-16T00:31:27;6.33;;;5.73;;
4214;SDS011;2121;48.062;7.850;2023-05-16T00:33:53;11.30;;;6.40;;
4214;SDS011;2121;48.062;7.850;2023-05-16T00:36:19;8.33;;;6.60;;
4214;SDS011;2121;48.062;7.850;2023-05-16T00:38:46;6.30;;;5.73;;
4214;SDS011;2121;48.062;7.850;2023-05-16T00:41:12;7.00;;;6.33;;
4214;SDS011;2121;48.062;7.850;2023-05-16T00:43:38;8.20;;;5.80;;
4214;SDS011;2121;48.062;7.850;2023-05-16T00:46:04;7.27;;;6.57;;
4214;SDS011;2121;48.062;7.850;2023-05-16T00:48:30;7.07;;;6.37;;
4214;SDS011;2121;48.062;7.850;2023-05-16T00:50:56;6.37;;;5.77;;
4214;SDS011;2121;48.062;7.850;2023-05-16T00:53:22;7.63;;;6.70;;
4214;SDS011;2121;48.062;7.850;2023-05-16T00:55:49;6.73;;;6.13;;
4214;SDS011;2121;48.062;7.850;2023-05-16T00:58:15;6.83;;;6.13;;
4214;SDS011;2121;48.062;7.850;2023-05-16T01:00:43;7.90;;;7.20;;
4214;SDS011;2121;48.062;7.850;2023-05-16T01:03:11;7.00;;;6.30;;
4214;SDS011;2121;48.062;7.850;2023-05-16T01:05:37;8.77;;;8.00;;
4214;SDS011;2121;48.062;7.850;2023-05-16T01:08:02;8.20;;;6.03;;
4214;SDS011;2121;48.062;7.850;2023-05-16T01:10:34;8.37;;;7.57;;
4214;SDS011;2121;48.062;7.850;2023-05-16T01:13:21;11.40;;;6.80;;
4214;SDS011;2121;48.062;7.850;2023-05-16T01:16:09;8.37;;;6.50;;
4214;SDS011;2121;48.062;7.850;2023-05-16T01:21:48;9.63;;;7.70;;
4214;SDS011;2121;48.062;7.850;2023-05-16T01:24:32;7.50;;;6.77;;
4214;SDS011;2121;48.062;7.850;2023-05-16T01:27:29;7.10;;;6.40;;
4214;SDS011;2121;48.062;7.850;2023-05-16T01:29:56;6.60;;;6.00;;
4214;SDS011;2121;48.062;7.850;2023-05-16T01:32:21;7.73;;;7.03;;
4214;SDS011;2121;48.062;7.850;2023-05-16T01:34:49;8.60;;;6.60;;
4214;SDS011;2121;48.062;7.850;2023-05-16T01:37:29;8.03;;;7.03;;
4214;SDS011;2121;48.062;7.850;2023-05-16T01:40:11;8.13;;;6.70;;
4214;SDS011;2121;48.062;7.850;2023-05-16T01:42:51;7.30;;;6.70;;
4214;SDS011;2121;48.062;7.850;2023-05-16T01:45:22;10.53;;;7.17;;
4214;SDS011;2121;48.062;7.850;2023-05-16T01:48:01;8.87;;;6.63;;
4214;SDS011;2121;48.062;7.850;2023-05-16T01:50:33;8.07;;;7.27;;
4214;SDS011;2121;48.062;7.850;2023-05-16T01:53:06;7.07;;;6.37;;
4214;SDS011;2121;48.062;7.850;2023-05-16T01:58:10;7.23;;;6.23;;
4214;SDS011;2121;48.062;7.850;2023-05-16T02:00:39;7.30;;;6.50;;
4214;SDS011;2121;48.062;7.850;2023-05-16T02:03:05;9.90;;;6.53;;
4214;SDS011;2121;48.062;7.850;2023-05-16T02:05:32;7.63;;;6.83;;
4214;SDS011;2121;48.062;7.850;2023-05-16T02:07:58;8.03;;;7.23;;
4214;SDS011;2121;48.062;7.850;2023-05-16T02:10:24;7.80;;;7.00;;
4214;SDS011;2121;48.062;7.850;2023-05-16T02:12:51;7.43;;;6.07;;
4214;SDS011;2121;48.062;7.850;2023-05-16T02:15:17;7.83;;;7.13;;
4214;SDS011;2121;48.062;7.850;2023-05-16T02:17:43;7.37;;;6.20;;
4214;SDS011;2121;48.062;7.850;2023-05-16T02:20:09;8.67;;;7.10;;
4214;SDS011;2121;48.062;7.850;2023-05-16T02:22:35;9.03;;;8.10;;
4214;SDS011;2121;48.062;7.850;2023-05-16T02:25:03;7.50;;;6.83;;
4214;SDS011;2121;48.062;7.850;2023-05-16T02:27:30;7.77;;;6.60;;
4214;SDS011;2121;48.062;7.850;2023-05-16T02:29:56;7.97;;;7.17;;
4214;SDS011;2121;48.062;7.850;2023-05-16T02:32:22;7.03;;;6.23;;
4214;SDS011;2121;48.062;7.850;2023-05-16T02:34:48;9.17;;;6.97;;
4214;SDS011;2121;48.062;7.850;2023-05-16T02:37:14;15.40;;;7.60;;
4214;SDS011;2121;48.062;7.850;2023-05-16T02:39:40;7.80;;;7.00;;
4214;SDS011;2121;48.062;7.850;2023-05-16T02:42:06;8.50;;;6.90;;
4214;SDS011;2121;48.062;7.850;2023-05-16T02:44:33;8.03;;;6.67;;
4214;SDS011;2121;48.062;7.850;2023-05-16T02:46:58;9.57;;;6.83;;
4214;SDS011;2121;48.062;7.850;2023-05-16T02:49:24;9.67;;;7.17;;
4214;SDS011;2121;48.062;7.850;2023-05-16T02:51:50;11.17;;;6.83;;
4214;SDS011;2121;48.062;7.850;2023-05-16T02:54:16;12.17;;;7.73;;
4214;SDS011;2121;48.062;7.850;2023-05-16T02:56:43;11.10;;;8.20;;
4214;SDS011;2121;48.062;7.850;2023-05-16T02:59:10;12.53;;;8.70;;
4214;SDS011;2121;48.062;7.850;2023-05-16T03:01:36;11.40;;;9.30;;
4214;SDS011;2121;48.062;7.850;2023-05-16T03:04:02;11.00;;;9.17;;
4214;SDS011;2121;48.062;7.850;2023-05-16T03:06:27;12.97;;;10.33;;
4214;SDS011;2121;48.062;7.850;2023-05-16T03:08:54;11.00;;;9.40;;
4214;SDS011;2121;48.062;7.850;2023-05-16T03:11:20;13.10;;;9.70;;
4214;SDS011;2121;48.062;7.850;2023-05-16T03:13:47;12.50;;;10.63;;
4214;SDS011;2121;48.062;7.850;2023-05-16T03:16:13;18.13;;;12.50;;
4214;SDS011;2121;48.062;7.850;2023-05-16T03:18:39;14.93;;;11.07;;
4214;SDS011;2121;48.062;7.850;2023-05-16T03:21:05;20.10;;;14.57;;
4214;SDS011;2121;48.062;7.850;2023-05-16T03:23:31;16.70;;;13.97;;
4214;SDS011;2121;48.062;7.850;2023-05-16T03:25:57;20.30;;;14.30;;
4214;SDS011;2121;48.062;7.850;2023-05-16T03:28:23;22.70;;;17.60;;
4214;SDS011;2121;48.062;7.850;2023-05-16T03:30:49;19.20;;;16.60;;
4214;SDS011;2121;48.062;7.850;2023-05-16T03:33:15;29.90;;;17.70;;
4214;SDS011;2121;48.062;7.850;2023-05-16T03:35:41;23.20;;;17.47;;
4214;SDS011;2121;48.062;7.850;2023-05-16T03:38:08;27.33;;;19.70;;
4214;SDS011;2121;48.062;7.850;2023-05-16T03:40:34;28.03;;;19.37;;
4214;SDS011;2121;48.062;7.850;2023-05-16T03:43:00;28.10;;;18.97;;
4214;SDS011;2121;48.062;7.850;2023-05-16T03:45:25;33.60;;;21.90;;
4214;SDS011;2121;48.062;7.850;2023-05-16T03:47:51;27.50;;;19.37;;
4214;SDS011;2121;48.062;7.850;2023-05-16T03:50:17;25.97;;;19.70;;
4214;SDS011;2121;48.062;7.850;2023-05-16T03:52:42;23.43;;;19.70;;
4214;SDS011;2121;48.062;7.850;2023-05-16T03:55:08;25.57;;;19.87;;
4214;SDS011;2121;48.062;7.850;2023-05-16T03:57:34;24.83;;;17.77;;
4214;SDS011;2121;48.062;7.850;2023-05-16T04:00:02;27.17;;;19.27;;
4214;SDS011;2121;48.062;7.850;2023-05-16T04:02:32;27.37;;;19.60;;
4214;SDS011;2121;48.062;7.850;2023-05-16T04:04:57;26.67;;;17.53;;
4214;SDS011;2121;48.062;7.850;2023-05-16T04:07:23;24.67;;;18.03;;
4214;SDS011;2121;48.062;7.850;2023-05-16T04:09:49;27.83;;;20.47;;
4214;SDS011;2121;48.062;7.850;2023-05-16T04:12:16;28.63;;;19.07;;
4214;SDS011;2121;48.062;7.850;2023-05-16T04:14:41;26.50;;;18.83;;
4214;SDS011;2121;48.062;7.850;2023-05-16T04:17:07;28.97;;;18.57;;
4214;SDS011;2121;48.062;7.850;2023-05-16T04:19:34;33.00;;;21.30;;
4214;SDS011;2121;48.062;7.850;2023-05-16T04:22:00;30.77;;;21.67;;
4214;SDS011;2121;48.062;7.850;2023-05-16T04:24:26;30.33;;;21.40;;
4214;SDS011;2121;48.062;7.850;2023-05-16T04:26:53;28.80;;;20.03;;
4214;SDS011;2121;48.062;7.850;2023-05-16T04:29:19;29.47;;;20.80;;
4214;SDS011;2121;48.062;7.850;2023-05-16T04:31:46;37.20;;;22.60;;
4214;SDS011;2121;48.062;7.850;2023-05-16T04:34:12;41.40;;;25.80;;
4214;SDS011;2121;48.062;7.850;2023-05-16T04:36:39;44.77;;;29.60;;
4214;SDS011;2121;48.062;7.850;2023-05-16T04:39:06;35.10;;;23.83;;
4214;SDS011;2121;48.062;7.850;2023-05-16T04:41:32;39.63;;;29.03;;
4214;SDS011;2121;48.062;7.850;2023-05-16T04:44:01;35.90;;;24.90;;
4214;SDS011;2121;48.062;7.850;2023-05-16T04:46:30;29.07;;;22.60;;
4214;SDS011;2121;48.062;7.850;2023-05-16T04:48:56;31.97;;;22.63;;
4214;SDS011;2121;48.062;7.850;2023-05-16T04:51:22;30.23;;;22.30;;
4214;SDS011;2121;48.062;7.850;2023-05-16T04:53:47;37.23;;;22.50;;
4214;SDS011;2121;48.062;7.850;2023-05-16T04:56:13;37.93;;;24.77;;
4214;SDS011;2121;48.062;7.850;2023-05-16T04:58:39;34.93;;;24.33;;
4214;SDS011;2121;48.062;7.850;2023-05-16T05:01:04;40.93;;;23.30;;
4214;SDS011;2121;48.062;7.850;2023-05-16T05:03:30;32.33;;;22.30;;
4214;SDS011;2121;48.062;7.850;2023-05-16T05:05:56;38.70;;;23.50;;
4214;SDS011;2121;48.062;7.850;2023-05-16T05:08:22;32.67;;;22.07;;
4214;SDS011;2121;48.062;7.850;2023-05-16T05:10:47;30.20;;;20.93;;
4214;SDS011;2121;48.062;7.850;2023-05-16T05:13:13;38.33;;;24.70;;
4214;SDS011;2121;48.062;7.850;2023-05-16T05:15:39;34.90;;;22.60;;
4214;SDS011;2121;48.062;7.850;2023-05-16T05:18:05;38.03;;;24.20;;
4214;SDS011;2121;48.062;7.850;2023-05-16T05:20:30;41.53;;;26.03;;
4214;SDS011;2121;48.062;7.850;2023-05-16T05:22:56;43.60;;;26.37;;
4214;SDS011;2121;48.062;7.850;2023-05-16T05:25:22;42.07;;;26.00;;
4214;SDS011;2121;48.062;7.850;2023-05-16T05:27:48;38.20;;;24.00;;
4214;SDS011;2121;48.062;7.850;2023-05-16T05:30:13;43.37;;;25.73;;
4214;SDS011;2121;48.062;7.850;2023-05-16T05:32:40;47.03;;;25.57;;
4214;SDS011;2121;48.062;7.850;2023-05-16T05:35:05;49.43;;;26.60;;
4214;SDS011;2121;48.062;7.850;2023-05-16T05:37:31;44.80;;;27.37;;
4214;SDS011;2121;48.062;7.850;2023-05-16T05:39:57;45.87;;;25.40;;
4214;SDS011;2121;48.062;7.850;2023-05-16T05:42:23;47.10;;;24.47;;
4214;SDS011;2121;48.062;7.850;2023-05-16T05:44:49;42.50;;;24.93;;
4214;SDS011;2121;48.062;7.850;2023-05-16T05:47:15;41.80;;;24.47;;
4214;SDS011;2121;48.062;7.850;2023-05-16T05:49:41;46.27;;;26.67;;
4214;SDS011;2121;48.062;7.850;2023-05-16T05:52:07;41.27;;;24.97;;
4214;SDS011;2121;48.062;7.850;2023-05-16T05:54:33;41.70;;;22.50;;
4214;SDS011;2121;48.062;7.850;2023-05-16T05:56:59;44.00;;;25.70;;
4214;SDS011;2121;48.062;7.850;2023-05-16T05:59:25;43.30;;;23.07;;
4214;SDS011;2121;48.062;7.850;2023-05-16T06:01:51;42.73;;;24.80;;
4214;SDS011;2121;48.062;7.850;2023-05-16T06:04:20;48.37;;;25.83;;
4214;SDS011;2121;48.062;7.850;2023-05-16T06:06:46;44.43;;;24.90;;
4214;SDS011;2121;48.062;7.850;2023-05-16T06:09:12;42.97;;;24.50;;
4214;SDS011;2121;48.062;7.850;2023-05-16T06:11:39;52.70;;;25.70;;
4214;SDS011;2121;48.062;7.850;2023-05-16T06:14:05;45.93;;;25.07;;
4214;SDS011;2121;48.062;7.850;2023-05-16T06:16:31;39.30;;;24.07;;
4214;SDS011;2121;48.062;7.850;2023-05-16T06:18:57;39.77;;;22.80;;
4214;SDS011;2121;48.062;7.850;2023-05-16T06:21:23;47.10;;;24.73;;
4214;SDS011;2121;48.062;7.850;2023-05-16T06:23:49;47.30;;;23.87;;
4214;SDS011;2121;48.062;7.850;2023-05-16T06:26:15;49.33;;;22.07;;
4214;SDS011;2121;48.062;7.850;2023-05-16T06:28:40;42.13;;;23.40;;
4214;SDS011;2121;48.062;7.850;2023-05-16T06:31:06;45.70;;;22.40;;
4214;SDS011;2121;48.062;7.850;2023-05-16T06:33:32;48.23;;;25.43;;
4214;SDS011;2121;48.062;7.850;2023-05-16T06:35:58;48.37;;;23.57;;
4214;SDS011;2121;48.062;7.850;2023-05-16T06:38:24;46.67;;;24.30;;
4214;SDS011;2121;48.062;7.850;2023-05-16T06:40:50;54.20;;;27.03;;
4214;SDS011;2121;48.062;7.850;2023-05-16T06:43:16;42.07;;;23.80;;
4214;SDS011;2121;48.062;7.850;2023-05-16T06:45:43;44.87;;;24.07;;
4214;SDS011;2121;48.062;7.850;2023-05-16T06:48:10;48.97;;;24.40;;
4214;SDS011;2121;48.062;7.850;2023-05-16T06:50:38;41.93;;;24.80;;
4214;SDS011;2121;48.062;7.850;2023-05-16T06:53:04;44.30;;;23.90;;
4214;SDS011;2121;48.062;7.850;2023-05-16T06:55:31;48.00;;;24.13;;
4214;SDS011;2121;48.062;7.850;2023-05-16T06:57:57;38.23;;;22.73;;
4214;SDS011;2121;48.062;7.850;2023-05-16T07:00:23;47.03;;;24.30;;
4214;SDS011;2121;48.062;7.850;2023-05-16T07:02:49;40.10;;;22.33;;
4214;SDS011;2121;48.062;7.850;2023-05-16T07:05:15;40.83;;;25.00;;
4214;SDS011;2121;48.062;7.850;2023-05-16T07:07:41;54.53;;;24.67;;
4214;SDS011;2121;48.062;7.850;2023-05-16T07:10:07;45.70;;;24.17;;
4214;SDS011;2121;48.062;7.850;2023-05-16T07:12:34;45.77;;;26.23;;
4214;SDS011;2121;48.062;7.850;2023-05-16T07:15:02;49.07;;;25.10;;
4214;SDS011;2121;48.062;7.850;2023-05-16T07:17:28;48.90;;;23.87;;
4214;SDS011;2121;48.062;7.850;2023-05-16T07:19:54;45.33;;;22.07;;
4214;SDS011;2121;48.062;7.850;2023-05-16T07:22:20;39.93;;;23.47;;
4214;SDS011;2121;48.062;7.850;2023-05-16T07:24:45;42.47;;;23.73;;
4214;SDS011;2121;48.062;7.850;2023-05-16T07:27:11;40.27;;;21.90;;
4214;SDS011;2121;48.062;7.850;2023-05-16T07:29:37;42.27;;;25.40;;
4214;SDS011;2121;48.062;7.850;2023-05-16T07:32:03;41.80;;;23.37;;
4214;SDS011;2121;48.062;7.850;2023-05-16T07:34:30;43.03;;;24.60;;
4214;SDS011;2121;48.062;7.850;2023-05-16T07:36:55;46.60;;;23.70;;
4214;SDS011;2121;48.062;7.850;2023-05-16T07:39:21;31.43;;;18.80;;
4214;SDS011;2121;48.062;7.850;2023-05-16T07:41:47;37.90;;;22.13;;
4214;SDS011;2121;48.062;7.850;2023-05-16T07:44:12;41.80;;;21.63;;
4214;SDS011;2121;48.062;7.850;2023-05-16T07:46:38;46.43;;;21.73;;
4214;SDS011;2121;48.062;7.850;2023-05-16T07:49:04;35.33;;;21.77;;
4214;SDS011;2121;48.062;7.850;2023-05-16T07:51:30;41.73;;;23.30;;
4214;SDS011;2121;48.062;7.850;2023-05-16T07:53:55;34.83;;;20.80;;
4214;SDS011;2121;48.062;7.850;2023-05-16T07:56:21;43.43;;;21.80;;
4214;SDS011;2121;48.062;7.850;2023-05-16T07:58:47;34.83;;;20.67;;
4214;SDS011;2121;48.062;7.850;2023-05-16T08:01:14;39.33;;;22.03;;
4214;SDS011;2121;48.062;7.850;2023-05-16T08:03:40;31.73;;;19.57;;
4214;SDS011;2121;48.062;7.850;2023-05-16T08:06:06;42.10;;;21.00;;
4214;SDS011;2121;48.062;7.850;2023-05-16T08:08:32;39.87;;;22.93;;
4214;SDS011;2121;48.062;7.850;2023-05-16T08:10:58;38.13;;;21.10;;
4214;SDS011;2121;48.062;7.850;2023-05-16T08:13:23;35.53;;;21.80;;
4214;SDS011;2121;48.062;7.850;2023-05-16T08:15:49;33.57;;;21.10;;
4214;SDS011;2121;48.062;7.850;2023-05-16T08:18:15;41.07;;;24.27;;
4214;SDS011;2121;48.062;7.850;2023-05-16T08:20:41;39.70;;;20.27;;
4214;SDS011;2121;48.062;7.850;2023-05-16T08:23:07;35.50;;;20.97;;
4214;SDS011;2121;48.062;7.850;2023-05-16T08:25:33;40.60;;;22.47;;
4214;SDS011;2121;48.062;7.850;2023-05-16T08:27:59;48.13;;;23.93;;
4214;SDS011;2121;48.062;7.850;2023-05-16T08:30:26;34.00;;;19.47;;
4214;SDS011;2121;48.062;7.850;2023-05-16T08:32:52;36.37;;;19.43;;
4214;SDS011;2121;48.062;7.850;2023-05-16T08:35:18;32.37;;;20.40;;
4214;SDS011;2121;48.062;7.850;2023-05-16T08:37:44;37.67;;;20.83;;
4214;SDS011;2121;48.062;7.850;2023-05-16T08:40:10;34.17;;;20.00;;
4214;SDS011;2121;48.062;7.850;2023-05-16T08:42:38;38.23;;;20.73;;
4214;SDS011;2121;48.062;7.850;2023-05-16T08:45:05;38.10;;;20.97;;
4214;SDS011;2121;48.062;7.850;2023-05-16T08:47:32;30.97;;;20.00;;
4214;SDS011;2121;48.062;7.850;2023-05-16T08:50:01;36.50;;;19.90;;
4214;SDS011;2121;48.062;7.850;2023-05-16T08:52:29;38.70;;;21.27;;
4214;SDS011;2121;48.062;7.850;2023-05-16T08:54:58;34.43;;;22.73;;
4214;SDS011;2121;48.062;7.850;2023-05-16T08:57:31;35.53;;;19.87;;
4214;SDS011;2121;48.062;7.850;2023-05-16T08:59:58;37.53;;;21.40;;
4214;SDS011;2121;48.062;7.850;2023-05-16T09:02:24;37.67;;;23.30;;
4214;SDS011;2121;48.062;7.850;2023-05-16T09:04:52;36.77;;;19.80;;
4214;SDS011;2121;48.062;7.850;2023-05-16T09:07:21;31.73;;;20.60;;
4214;SDS011;2121;48.062;7.850;2023-05-16T09:09:47;33.27;;;19.97;;
4214;SDS011;2121;48.062;7.850;2023-05-16T09:12:13;39.13;;;20.27;;
4214;SDS011;2121;48.062;7.850;2023-05-16T09:14:39;34.77;;;19.73;;
4214;SDS011;2121;48.062;7.850;2023-05-16T09:17:06;36.23;;;21.20;;
4214;SDS011;2121;48.062;7.850;2023-05-16T09:19:36;34.97;;;20.73;;
4214;SDS011;2121;48.062;7.850;2023-05-16T09:22:05;34.57;;;20.57;;
4214;SDS011;2121;48.062;7.850;2023-05-16T09:24:42;39.40;;;21.90;;
4214;SDS011;2121;48.062;7.850;2023-05-16T09:27:10;33.20;;;21.20;;
4214;SDS011;2121;48.062;7.850;2023-05-16T09:29:41;36.93;;;20.83;;
4214;SDS011;2121;48.062;7.850;2023-05-16T09:32:08;34.90;;;20.10;;
4214;SDS011;2121;48.062;7.850;2023-05-16T09:34:40;36.13;;;22.43;;
4214;SDS011;2121;48.062;7.850;2023-05-16T09:37:13;38.73;;;20.73;;
4214;SDS011;2121;48.062;7.850;2023-05-16T09:39:46;35.40;;;20.80;;
4214;SDS011;2121;48.062;7.850;2023-05-16T09:42:15;47.60;;;21.23;;
4214;SDS011;2121;48.062;7.850;2023-05-16T09:44:47;36.60;;;21.87;;
4214;SDS011;2121;48.062;7.850;2023-05-16T09:47:15;39.33;;;21.10;;
4214;SDS011;2121;48.062;7.850;2023-05-16T09:49:46;37.63;;;21.50;;
4214;SDS011;2121;48.062;7.850;2023-05-16T09:52:16;34.87;;;17.97;;
4214;SDS011;2121;48.062;7.850;2023-05-16T09:54:42;28.67;;;17.67;;
4214;SDS011;2121;48.062;7.850;2023-05-16T09:57:10;38.93;;;20.93;;
4214;SDS011;2121;48.062;7.850;2023-05-16T09:59:37;32.33;;;20.30;;
4214;SDS011;2121;48.062;7.850;2023-05-16T10:02:04;29.50;;;17.40;;
4214;SDS011;2121;48.062;7.850;2023-05-16T10:04:34;33.83;;;20.00;;
4214;SDS011;2121;48.062;7.850;2023-05-16T10:07:03;34.17;;;20.70;;
4214;SDS011;2121;48.062;7.850;2023-05-16T10:09:31;29.97;;;16.37;;
4214;SDS011;2121;48.062;7.850;2023-05-16T10:11:57;29.70;;;18.97;;
4214;SDS011;2121;48.062;7.850;2023-05-16T10:14:33;44.07;;;19.03;;
4214;SDS011;2121;48.062;7.850;2023-05-16T10:17:02;27.83;;;16.23;;
4214;SDS011;2121;48.062;7.850;2023-05-16T10:19:31;28.73;;;17.47;;
4214;SDS011;2121;48.062;7.850;2023-05-16T10:22:01;23.87;;;15.70;;
4214;SDS011;2121;48.062;7.850;2023-05-16T10:24:34;23.67;;;14.50;;
4214;SDS011;2121;48.062;7.850;2023-05-16T10:27:11;26.77;;;15.57;;
4214;SDS011;2121;48.062;7.850;2023-05-16T10:29:37;21.20;;;14.23;;
4214;SDS011;2121;48.062;7.850;2023-05-16T10:32:04;29.37;;;16.83;;
4214;SDS011;2121;48.062;7.850;2023-05-16T10:34:32;26.90;;;15.60;;
4214;SDS011;2121;48.062;7.850;2023-05-16T10:36:58;20.60;;;14.00;;
4214;SDS011;2121;48.062;7.850;2023-05-16T10:39:24;25.03;;;15.47;;
4214;SDS011;2121;48.062;7.850;2023-05-16T10:41:51;17.87;;;12.53;;
4214;SDS011;2121;48.062;7.850;2023-05-16T10:44:17;21.33;;;13.30;;
4214;SDS011;2121;48.062;7.850;2023-05-16T10:46:45;17.10;;;11.60;;
4214;SDS011;2121;48.062;7.850;2023-05-16T10:49:18;21.73;;;11.40;;
4214;SDS011;2121;48.062;7.850;2023-05-16T10:52:01;18.27;;;11.33;;
4214;SDS011;2121;48.062;7.850;2023-05-16T10:54:33;15.90;;;9.70;;
4214;SDS011;2121;48.062;7.850;2023-05-16T10:57:04;19.37;;;10.80;;
4214;SDS011;2121;48.062;7.850;2023-05-16T10:59:43;11.80;;;8.70;;
4214;SDS011;2121;48.062;7.850;2023-05-16T11:02:26;16.00;;;9.93;;
4214;SDS011;2121;48.062;7.850;2023-05-16T11:04:58;15.80;;;10.10;;
4214;SDS011;2121;48.062;7.850;2023-05-16T11:07:30;11.57;;;8.37;;
4214;SDS011;2121;48.062;7.850;2023-05-16T11:12:49;13.17;;;7.97;;
4214;SDS011;2121;48.062;7.850;2023-05-16T11:15:26;14.63;;;9.93;;
4214;SDS011;2121;48.062;7.850;2023-05-16T11:18:13;13.10;;;8.87;;
4214;SDS011;2121;48.062;7.850;2023-05-16T11:20:41;14.43;;;8.87;;
4214;SDS011;2121;48.062;7.850;2023-05-16T11:25:47;30.90;;;17.80;;
4214;SDS011;2121;48.062;7.850;2023-05-16T11:28:18;35.43;;;22.30;;
4214;SDS011;2121;48.062;7.850;2023-05-16T11:30:45;16.27;;;10.47;;
4214;SDS011;2121;48.062;7.850;2023-05-16T11:33:16;16.07;;;11.73;;
4214;SDS011;2121;48.062;7.850;2023-05-16T11:35:43;18.63;;;10.93;;
4214;SDS011;2121;48.062;7.850;2023-05-16T11:38:25;13.60;;;9.10;;
4214;SDS011;2121;48.062;7.850;2023-05-16T11:40:51;16.97;;;9.27;;
4214;SDS011;2121;48.062;7.850;2023-05-16T11:43:17;15.33;;;10.73;;
4214;SDS011;2121;48.062;7.850;2023-05-16T11:45:43;18.90;;;9.50;;
4214;SDS011;2121;48.062;7.850;2023-05-16T11:48:09;11.43;;;8.23;;
4214;SDS011;2121;48.062;7.850;2023-05-16T11:50:35;11.33;;;7.40;;
4214;SDS011;2121;48.062;7.850;2023-05-16T11:53:01;7.37;;;6.27;;
4214;SDS011;2121;48.062;7.850;2023-05-16T11:55:28;7.60;;;6.43;;
4214;SDS011;2121;48.062;7.850;2023-05-16T11:57:58;7.60;;;5.47;;
4214;SDS011;2121;48.062;7.850;2023-05-16T12:00:24;5.10;;;4.63;;
4214;SDS011;2121;48.062;7.850;2023-05-16T12:02:51;6.33;;;5.13;;
4214;SDS011;2121;48.062;7.850;2023-05-16T12:05:24;5.17;;;4.50;;
4214;SDS011;2121;48.062;7.850;2023-05-16T12:07:52;8.33;;;5.10;;
4214;SDS011;2121;48.062;7.850;2023-05-16T12:10:18;4.40;;;3.63;;
4214;SDS011;2121;48.062;7.850;2023-05-16T12:12:45;4.90;;;4.17;;
4214;SDS011;2121;48.062;7.850;2023-05-16T12:15:15;4.87;;;4.40;;
4214;SDS011;2121;48.062;7.850;2023-05-16T12:17:41;7.27;;;4.50;;
4214;SDS011;2121;48.062;7.850;2023-05-16T12:20:07;7.50;;;4.20;;
4214;SDS011;2121;48.062;7.850;2023-05-16T12:22:47;6.60;;;4.40;;
4214;SDS011;2121;48.062;7.850;2023-05-16T12:25:31;6.13;;;4.30;;
4214;SDS011;2121;48.062;7.850;2023-05-16T12:28:05;5.50;;;4.10;;
4214;SDS011;2121;48.062;7.850;2023-05-16T12:30:32;4.40;;;4.00;;
4214;SDS011;2121;48.062;7.850;2023-05-16T12:35:32;5.40;;;4.87;;
4214;SDS011;2121;48.062;7.850;2023-05-16T12:37:59;5.37;;;4.87;;
4214;SDS011;2121;48.062;7.850;2023-05-16T12:40:29;6.27;;;4.13;;
4214;SDS011;2121;48.062;7.850;2023-05-16T12:42:55;6.63;;;5.07;;
4214;SDS011;2121;48.062;7.850;2023-05-16T12:45:22;5.83;;;4.93;;
4214;SDS011;2121;48.062;7.850;2023-05-16T12:47:48;6.63;;;5.93;;
4214;SDS011;2121;48.062;7.850;2023-05-16T12:50:15;4.93;;;4.30;;
4214;SDS011;2121;48.062;7.850;2023-05-16T12:52:50;6.00;;;5.20;;
4214;SDS011;2121;48.062;7.850;2023-05-16T12:55:18;5.57;;;5.07;;
4214;SDS011;2121;48.062;7.850;2023-05-16T12:57:47;4.33;;;3.93;;
4214;SDS011;2121;48.062;7.850;2023-05-16T13:00:14;4.20;;;3.80;;
4214;SDS011;2121;48.062;7.850;2023-05-16T13:02:46;4.87;;;4.43;;
4214;SDS011;2121;48.062;7.850;2023-05-16T13:05:12;4.43;;;3.87;;
4214;SDS011;2121;48.062;7.850;2023-05-16T13:07:39;3.10;;;2.70;;
4214;SDS011;2121;48.062;7.850;2023-05-16T13:10:06;13.67;;;7.33;;
4214;SDS011;2121;48.062;7.850;2023-05-16T13:12:34;4.93;;;3.40;;
4214;SDS011;2121;48.062;7.850;2023-05-16T13:15:09;4.00;;;3.70;;
4214;SDS011;2121;48.062;7.850;2023-05-16T13:17:36;4.20;;;3.60;;
4214;SDS011;2121;48.062;7.850;2023-05-16T13:20:04;3.03;;;2.83;;
4214;SDS011;2121;48.062;7.850;2023-05-16T13:22:37;12.50;;;6.33;;
4214;SDS011;2121;48.062;7.850;2023-05-16T13:25:07;3.77;;;3.33;;
4214;SDS011;2121;48.062;7.850;2023-05-16T13:27:34;3.23;;;2.93;;
4214;SDS011;2121;48.062;7.850;2023-05-16T13:30:00;4.03;;;3.63;;
4214;SDS011;2121;48.062;7.850;2023-05-16T13:32:28;2.70;;;2.50;;
4214;SDS011;2121;48.062;7.850;2023-05-16T13:34:53;3.63;;;3.37;;
4214;SDS011;2121;48.062;7.850;2023-05-16T13:37:19;4.47;;;4.13;;
4214;SDS011;2121;48.062;7.850;2023-05-16T13:39:48;4.20;;;3.50;;
4214;SDS011;2121;48.062;7.850;2023-05-16T13:42:14;2.70;;;2.50;;
4214;SDS011;2121;48.062;7.850;2023-05-16T13:44:40;2.87;;;2.57;;
4214;SDS011;2121;48.062;7.850;2023-05-16T13:47:06;3.47;;;3.17;;
4214;SDS011;2121;48.062;7.850;2023-05-16T13:49:32;3.23;;;3.03;;
4214;SDS011;2121;48.062;7.850;2023-05-16T13:51:58;3.80;;;3.50;;
4214;SDS011;2121;48.062;7.850;2023-05-16T13:54:25;3.60;;;3.30;;
4214;SDS011;2121;48.062;7.850;2023-05-16T13:56:51;5.27;;;4.37;;
4214;SDS011;2121;48.062;7.850;2023-05-16T13:59:18;4.60;;;4.13;;
4214;SDS011;2121;48.062;7.850;2023-05-16T14:01:44;4.30;;;3.90;;
4214;SDS011;2121;48.062;7.850;2023-05-16T14:04:09;4.07;;;3.67;;
4214;SDS011;2121;48.062;7.850;2023-05-16T14:06:35;5.10;;;4.60;;
4214;SDS011;2121;48.062;7.850;2023-05-16T14:09:01;3.57;;;3.20;;
4214;SDS011;2121;48.062;7.850;2023-05-16T14:11:27;4.80;;;2.93;;
4214;SDS011;2121;48.062;7.850;2023-05-16T14:13:53;4.10;;;3.70;;
4214;SDS011;2121;48.062;7.850;2023-05-16T14:16:19;4.43;;;4.03;;
4214;SDS011;2121;48.062;7.850;2023-05-16T14:18:44;3.50;;;3.17;;
4214;SDS011;2121;48.062;7.850;2023-05-16T14:21:14;3.60;;;3.30;;
4214;SDS011;2121;48.062;7.850;2023-05-16T14:23:39;4.20;;;3.80;;
4214;SDS011;2121;48.062;7.850;2023-05-16T14:26:05;3.43;;;3.10;;
4214;SDS011;2121;48.062;7.850;2023-05-16T14:28:31;3.20;;;3.00;;
4214;SDS011;2121;48.062;7.850;2023-05-16T14:30:57;6.63;;;3.87;;
4214;SDS011;2121;48.062;7.850;2023-05-16T14:33:24;6.43;;;3.90;;
4214;SDS011;2121;48.062;7.850;2023-05-16T14:35:50;4.13;;;3.83;;
4214;SDS011;2121;48.062;7.850;2023-05-16T14:38:16;3.80;;;3.50;;
4214;SDS011;2121;48.062;7.850;2023-05-16T14:40:42;3.23;;;3.00;;
4214;SDS011;2121;48.062;7.850;2023-05-16T14:43:08;3.43;;;3.10;;
4214;SDS011;2121;48.062;7.850;2023-05-16T14:45:34;4.80;;;3.20;;
4214;SDS011;2121;48.062;7.850;2023-05-16T14:48:01;2.47;;;2.37;;
4214;SDS011;2121;48.062;7.850;2023-05-16T14:50:27;2.67;;;2.57;;
4214;SDS011;2121;48.062;7.850;2023-05-16T14:52:53;2.63;;;2.50;;
4214;SDS011;2121;48.062;7.850;2023-05-16T14:55:19;2.40;;;2.30;;
4214;SDS011;2121;48.062;7.850;2023-05-16T14:57:45;2.50;;;2.40;;
4214;SDS011;2121;48.062;7.850;2023-05-16T15:00:13;20.70;;;12.43;;
4214;SDS011;2121;48.062;7.850;2023-05-16T15:02:41;2.83;;;2.60;;
4214;SDS011;2121;48.062;7.850;2023-05-16T15:05:08;3.27;;;3.07;;
4214;SDS011;2121;48.062;7.850;2023-05-16T15:07:34;2.73;;;2.63;;
4214;SDS011;2121;48.062;7.850;2023-05-16T15:09:59;3.20;;;3.00;;
4214;SDS011;2121;48.062;7.850;2023-05-16T15:12:25;5.13;;;3.20;;
4214;SDS011;2121;48.062;7.850;2023-05-16T15:14:54;2.63;;;2.43;;
4214;SDS011;2121;48.062;7.850;2023-05-16T15:17:21;3.47;;;3.20;;